sensor_id;sensor_type;location;lat;lon;timestamp;pressure;altitude;pressure_sealevel;temperature;humidity
37892;BME280;45797;47.466;9.486;2023-04-21T00:02:27;95345.50;;;8.49;71.83
37892;BME280;45797;47.466;9.486;2023-04-21T00:07:27;95339.16;;;8.40;72.26
37892;BME280;45797;47.466;9.486;2023-04-21T00:12:29;95346.66;;;8.32;72.44
37892;BME280;45797;47.466;9.486;2023-04-21T00:17:29;95332.91;;;8.30;72.21
37892;BME280;45797;47.466;9.486;2023-04-21T00:22:29;95333.50;;;8.34;72.38
37892;BME280;45797;47.466;9.486;2023-04-21T00:27:30;95316.09;;;8.34;72.24
37892;BME280;45797;47.466;9.486;2023-04-21T00:32:30;95321.41;;;8.32;71.88
37892;BME280;45797;47.466;9.486;2023-04-21T00:37:30;95311.31;;;8.28;72.33
37892;BME280;45797;47.466;9.486;2023-04-21T00:42:30;95310.78;;;8.23;72.49
37892;BME280;45797;47.466;9.486;2023-04-21T00:47:31;95307.69;;;8.18;72.87
37892;BME280;45797;47.466;9.486;2023-04-21T00:52:33;95317.72;;;8.11;72.47
37892;BME280;45797;47.466;9.486;2023-04-21T00:57:35;95319.91;;;8.05;72.58
37892;BME280;45797;47.466;9.486;2023-04-21T01:02:38;95342.75;;;8.01;72.80
37892;BME280;45797;47.466;9.486;2023-04-21T01:07:39;95343.41;;;7.92;72.88
37892;BME280;45797;47.466;9.486;2023-04-21T01:12:46;95340.91;;;7.90;72.79
37892;BME280;45797;47.466;9.486;2023-04-21T01:17:46;95321.09;;;7.88;72.61
37892;BME280;45797;47.466;9.486;2023-04-21T01:22:48;95306.81;;;7.81;72.65
37892;BME280;45797;47.466;9.486;2023-04-21T01:27:51;95316.94;;;7.72;73.15
37892;BME280;45797;47.466;9.486;2023-04-21T01:32:54;95336.00;;;7.73;72.87
37892;BME280;45797;47.466;9.486;2023-04-21T01:37:54;95333.19;;;7.76;72.86
37892;BME280;45797;47.466;9.486;2023-04-21T01:42:54;95334.75;;;7.79;72.71
37892;BME280;45797;47.466;9.486;2023-04-21T01:47:55;95337.25;;;7.80;72.39
37892;BME280;45797;47.466;9.486;2023-04-21T01:52:55;95334.53;;;7.82;72.48
37892;BME280;45797;47.466;9.486;2023-04-21T01:57:55;95327.34;;;7.85;72.48
37892;BME280;45797;47.466;9.486;2023-04-21T02:02:58;95348.19;;;7.85;73.02
37892;BME280;45797;47.466;9.486;2023-04-21T02:07:59;95337.56;;;7.88;72.84
37892;BME280;45797;47.466;9.486;2023-04-21T02:12:59;95324.31;;;7.91;71.91
37892;BME280;45797;47.466;9.486;2023-04-21T02:17:59;95329.41;;;7.93;72.54
37892;BME280;45797;47.466;9.486;2023-04-21T02:23:00;95329.31;;;7.94;72.72
37892;BME280;45797;47.466;9.486;2023-04-21T02:28:01;95309.09;;;7.98;72.62
37892;BME280;45797;47.466;9.486;2023-04-21T02:33:01;95314.78;;;8.03;72.32
37892;BME280;45797;47.466;9.486;2023-04-21T02:38:01;95312.00;;;8.06;72.11
37892;BME280;45797;47.466;9.486;2023-04-21T02:43:06;95332.75;;;8.08;72.05
37892;BME280;45797;47.466;9.486;2023-04-21T02:48:06;95348.88;;;8.13;72.04
37892;BME280;45797;47.466;9.486;2023-04-21T02:53:06;95347.94;;;8.14;71.97
37892;BME280;45797;47.466;9.486;2023-04-21T02:58:06;95367.69;;;8.18;71.74
37892;BME280;45797;47.466;9.486;2023-04-21T03:03:07;95362.34;;;8.19;72.19
37892;BME280;45797;47.466;9.486;2023-04-21T03:08:09;95351.91;;;8.19;72.04
37892;BME280;45797;47.466;9.486;2023-04-21T03:13:09;95342.31;;;8.20;71.83
37892;BME280;45797;47.466;9.486;2023-04-21T03:18:10;95348.38;;;8.20;71.98
37892;BME280;45797;47.466;9.486;2023-04-21T03:23:10;95348.97;;;8.24;72.20
37892;BME280;45797;47.466;9.486;2023-04-21T03:28:10;95341.78;;;8.27;71.96
37892;BME280;45797;47.466;9.486;2023-04-21T03:33:11;95347.13;;;8.26;72.10
37892;BME280;45797;47.466;9.486;2023-04-21T03:38:11;95348.56;;;8.30;72.33
37892;BME280;45797;47.466;9.486;2023-04-21T03:43:11;95341.66;;;8.29;72.32
37892;BME280;45797;47.466;9.486;2023-04-21T03:48:12;95350.56;;;8.26;72.28
37892;BME280;45797;47.466;9.486;2023-04-21T03:53:12;95355.66;;;8.28;72.06
37892;BME280;45797;47.466;9.486;2023-04-21T03:58:12;95340.94;;;8.27;72.44
37892;BME280;45797;47.466;9.486;2023-04-21T04:03:13;95342.28;;;8.32;72.30
37892;BME280;45797;47.466;9.486;2023-04-21T04:08:13;95323.19;;;8.32;72.33
37892;BME280;45797;47.466;9.486;2023-04-21T04:13:13;95334.38;;;8.34;72.28
37892;BME280;45797;47.466;9.486;2023-04-21T04:18:13;95335.00;;;8.25;72.14
37892;BME280;45797;47.466;9.486;2023-04-21T04:23:13;95333.88;;;8.16;72.31
37892;BME280;45797;47.466;9.486;2023-04-21T04:28:13;95327.91;;;8.14;72.40
37892;BME280;45797;47.466;9.486;2023-04-21T04:33:14;95323.53;;;8.15;72.52
37892;BME280;45797;47.466;9.486;2023-04-21T04:38:14;95325.94;;;8.18;72.35
37892;BME280;45797;47.466;9.486;2023-04-21T04:43:15;95314.88;;;8.14;72.74
37892;BME280;45797;47.466;9.486;2023-04-21T04:48:15;95312.91;;;8.18;72.96
37892;BME280;45797;47.466;9.486;2023-04-21T04:53:15;95307.22;;;8.24;72.34
37892;BME280;45797;47.466;9.486;2023-04-21T04:58:16;95306.31;;;8.25;72.55
37892;BME280;45797;47.466;9.486;2023-04-21T05:03:16;95294.47;;;8.32;72.36
37892;BME280;45797;47.466;9.486;2023-04-21T05:08:16;95295.75;;;8.39;72.20
37892;BME280;45797;47.466;9.486;2023-04-21T05:13:16;95291.88;;;8.45;72.14
37892;BME280;45797;47.466;9.486;2023-04-21T05:18:17;95293.19;;;8.50;72.07
37892;BME280;45797;47.466;9.486;2023-04-21T05:23:17;95292.16;;;8.53;72.19
37892;BME280;45797;47.466;9.486;2023-04-21T05:28:17;95295.16;;;8.59;72.18
37892;BME280;45797;47.466;9.486;2023-04-21T05:33:17;95298.38;;;8.63;72.27
37892;BME280;45797;47.466;9.486;2023-04-21T05:38:21;95278.53;;;8.61;71.84
37892;BME280;45797;47.466;9.486;2023-04-21T05:43:21;95292.34;;;8.63;72.24
37892;BME280;45797;47.466;9.486;2023-04-21T05:48:22;95276.19;;;8.69;71.98
37892;BME280;45797;47.466;9.486;2023-04-21T05:53:24;95270.53;;;8.75;71.94
37892;BME280;45797;47.466;9.486;2023-04-21T05:58:24;95267.81;;;8.76;71.71
37892;BME280;45797;47.466;9.486;2023-04-21T06:03:24;95270.94;;;8.81;71.78
37892;BME280;45797;47.466;9.486;2023-04-21T06:08:24;95275.09;;;8.84;72.01
37892;BME280;45797;47.466;9.486;2023-04-21T06:13:24;95292.84;;;8.79;72.07
37892;BME280;45797;47.466;9.486;2023-04-21T06:18:26;95286.22;;;8.75;72.11
37892;BME280;45797;47.466;9.486;2023-04-21T06:23:26;95283.88;;;8.83;71.97
37892;BME280;45797;47.466;9.486;2023-04-21T06:28:27;95283.47;;;9.00;72.12
37892;BME280;45797;47.466;9.486;2023-04-21T06:33:27;95286.31;;;9.08;71.47
37892;BME280;45797;47.466;9.486;2023-04-21T06:38:28;95290.16;;;9.15;71.91
37892;BME280;45797;47.466;9.486;2023-04-21T06:43:28;95291.84;;;9.28;71.31
37892;BME280;45797;47.466;9.486;2023-04-21T06:48:29;95292.00;;;9.49;70.80
37892;BME280;45797;47.466;9.486;2023-04-21T06:53:30;95282.88;;;9.65;70.33
37892;BME280;45797;47.466;9.486;2023-04-21T06:58:30;95297.00;;;9.63;71.06
37892;BME280;45797;47.466;9.486;2023-04-21T07:03:30;95299.16;;;9.58;70.52
37892;BME280;45797;47.466;9.486;2023-04-21T07:08:30;95303.38;;;9.36;71.20
37892;BME280;45797;47.466;9.486;2023-04-21T07:13:31;95299.44;;;9.20;71.48
37892;BME280;45797;47.466;9.486;2023-04-21T07:18:31;95297.28;;;9.13;71.87
37892;BME280;45797;47.466;9.486;2023-04-21T07:23:31;95300.41;;;9.30;71.34
37892;BME280;45797;47.466;9.486;2023-04-21T07:28:32;95285.84;;;9.61;70.85
37892;BME280;45797;47.466;9.486;2023-04-21T07:33:32;95280.63;;;10.06;69.98
37892;BME280;45797;47.466;9.486;2023-04-21T07:38:32;95282.41;;;10.16;69.52
37892;BME280;45797;47.466;9.486;2023-04-21T07:43:32;95283.94;;;10.08;70.08
37892;BME280;45797;47.466;9.486;2023-04-21T07:48:32;95279.06;;;10.03;70.22
37892;BME280;45797;47.466;9.486;2023-04-21T07:53:32;95278.47;;;10.22;69.93
37892;BME280;45797;47.466;9.486;2023-04-21T07:58:33;95287.09;;;10.56;69.22
37892;BME280;45797;47.466;9.486;2023-04-21T08:03:33;95277.50;;;10.77;69.21
37892;BME280;45797;47.466;9.486;2023-04-21T08:08:33;95282.34;;;10.93;68.77
37892;BME280;45797;47.466;9.486;2023-04-21T08:13:33;95284.16;;;11.13;68.40
37892;BME280;45797;47.466;9.486;2023-04-21T08:18:36;95294.56;;;11.04;68.60
37892;BME280;45797;47.466;9.486;2023-04-21T08:23:36;95292.16;;;11.12;68.63
37892;BME280;45797;47.466;9.486;2023-04-21T08:28:36;95294.06;;;11.52;68.10
37892;BME280;45797;47.466;9.486;2023-04-21T08:33:36;95289.75;;;11.92;67.13
37892;BME280;45797;47.466;9.486;2023-04-21T08:38:37;95288.72;;;12.05;66.93
37892;BME280;45797;47.466;9.486;2023-04-21T08:43:38;95292.31;;;12.04;67.36
37892;BME280;45797;47.466;9.486;2023-04-21T08:48:38;95287.38;;;12.20;67.16
37892;BME280;45797;47.466;9.486;2023-04-21T08:53:39;95288.72;;;12.54;66.59
37892;BME280;45797;47.466;9.486;2023-04-21T08:58:40;95282.28;;;12.97;65.49
37892;BME280;45797;47.466;9.486;2023-04-21T09:03:40;95277.97;;;13.54;64.46
37892;BME280;45797;47.466;9.486;2023-04-21T09:08:42;95268.16;;;14.03;63.89
37892;BME280;45797;47.466;9.486;2023-04-21T09:13:43;95269.50;;;14.07;64.25
37892;BME280;45797;47.466;9.486;2023-04-21T09:18:43;95258.19;;;13.97;64.27
37892;BME280;45797;47.466;9.486;2023-04-21T09:23:48;95262.97;;;13.84;64.87
37892;BME280;45797;47.466;9.486;2023-04-21T09:28:50;95266.25;;;13.86;65.34
37892;BME280;45797;47.466;9.486;2023-04-21T09:33:53;95259.34;;;14.22;64.43
37892;BME280;45797;47.466;9.486;2023-04-21T09:38:54;95267.53;;;14.46;64.18
37892;BME280;45797;47.466;9.486;2023-04-21T09:43:55;95267.13;;;14.51;63.98
37892;BME280;45797;47.466;9.486;2023-04-21T09:49:00;95275.25;;;14.20;65.01
37892;BME280;45797;47.466;9.486;2023-04-21T09:54:10;95266.69;;;14.18;65.10
37892;BME280;45797;47.466;9.486;2023-04-21T09:59:16;95256.78;;;14.30;64.92
37892;BME280;45797;47.466;9.486;2023-04-21T10:04:18;95262.81;;;14.50;64.50
37892;BME280;45797;47.466;9.486;2023-04-21T10:09:21;95254.69;;;14.61;64.32
37892;BME280;45797;47.466;9.486;2023-04-21T10:14:24;95257.13;;;14.90;63.79
37892;BME280;45797;47.466;9.486;2023-04-21T10:19:26;95251.78;;;15.18;63.19
37892;BME280;45797;47.466;9.486;2023-04-21T10:24:30;95256.50;;;15.32;63.21
37892;BME280;45797;47.466;9.486;2023-04-21T10:29:32;95250.78;;;15.19;63.21
37892;BME280;45797;47.466;9.486;2023-04-21T10:34:37;95244.53;;;15.02;63.88
37892;BME280;45797;47.466;9.486;2023-04-21T10:39:44;95237.47;;;15.02;64.04
37892;BME280;45797;47.466;9.486;2023-04-21T10:49:57;95232.56;;;15.07;64.05
37892;BME280;45797;47.466;9.486;2023-04-21T10:55:06;95223.28;;;15.03;64.07
37892;BME280;45797;47.466;9.486;2023-04-21T11:00:07;95216.13;;;15.13;63.79
37892;BME280;45797;47.466;9.486;2023-04-21T11:05:08;95218.91;;;15.12;63.66
37892;BME280;45797;47.466;9.486;2023-04-21T11:10:09;95226.56;;;15.23;63.49
37892;BME280;45797;47.466;9.486;2023-04-21T11:15:11;95213.78;;;15.54;63.17
37892;BME280;45797;47.466;9.486;2023-04-21T11:20:12;95209.03;;;15.84;62.53
37892;BME280;45797;47.466;9.486;2023-04-21T11:25:16;95209.13;;;16.08;61.71
37892;BME280;45797;47.466;9.486;2023-04-21T11:30:17;95209.00;;;16.18;61.82
37892;BME280;45797;47.466;9.486;2023-04-21T11:35:18;95196.53;;;16.44;61.70
37892;BME280;45797;47.466;9.486;2023-04-21T11:40:18;95215.66;;;16.72;61.08
37892;BME280;45797;47.466;9.486;2023-04-21T11:45:19;95211.97;;;16.65;61.17
37892;BME280;45797;47.466;9.486;2023-04-21T11:50:30;95209.88;;;16.69;60.82
37892;BME280;45797;47.466;9.486;2023-04-21T11:55:33;95202.47;;;16.97;61.04
37892;BME280;45797;47.466;9.486;2023-04-21T12:00:33;95202.63;;;17.11;60.27
37892;BME280;45797;47.466;9.486;2023-04-21T12:05:35;95188.38;;;17.37;59.75
37892;BME280;45797;47.466;9.486;2023-04-21T12:10:35;95180.91;;;17.49;59.49
37892;BME280;45797;47.466;9.486;2023-04-21T12:15:35;95173.09;;;17.80;59.05
37892;BME280;45797;47.466;9.486;2023-04-21T12:20:35;95180.31;;;18.02;58.82
37892;BME280;45797;47.466;9.486;2023-04-21T12:25:36;95186.47;;;18.34;58.51
37892;BME280;45797;47.466;9.486;2023-04-21T12:30:36;95184.38;;;18.52;57.67
37892;BME280;45797;47.466;9.486;2023-04-21T12:35:36;95189.97;;;18.65;58.33
37892;BME280;45797;47.466;9.486;2023-04-21T12:40:36;95186.09;;;18.99;57.14
37892;BME280;45797;47.466;9.486;2023-04-21T12:45:36;95187.44;;;19.55;56.35
37892;BME280;45797;47.466;9.486;2023-04-21T12:50:37;95176.41;;;19.81;55.82
37892;BME280;45797;47.466;9.486;2023-04-21T12:55:37;95175.06;;;20.00;55.77
37892;BME280;45797;47.466;9.486;2023-04-21T13:00:37;95172.81;;;20.48;54.55
37892;BME280;45797;47.466;9.486;2023-04-21T13:05:37;95172.72;;;20.77;54.18
37892;BME280;45797;47.466;9.486;2023-04-21T13:10:38;95172.94;;;20.97;53.92
37892;BME280;45797;47.466;9.486;2023-04-21T13:15:38;95171.66;;;21.15;53.27
37892;BME280;45797;47.466;9.486;2023-04-21T13:20:38;95170.06;;;21.20;53.33
37892;BME280;45797;47.466;9.486;2023-04-21T13:25:38;95166.28;;;21.29;52.98
37892;BME280;45797;47.466;9.486;2023-04-21T13:30:39;95168.22;;;21.21;53.28
37892;BME280;45797;47.466;9.486;2023-04-21T13:35:39;95166.47;;;21.06;53.40
37892;BME280;45797;47.466;9.486;2023-04-21T13:40:39;95164.81;;;21.05;53.17
37892;BME280;45797;47.466;9.486;2023-04-21T13:45:39;95172.53;;;20.79;53.54
37892;BME280;45797;47.466;9.486;2023-04-21T13:50:40;95171.16;;;20.47;54.49
37892;BME280;45797;47.466;9.486;2023-04-21T13:55:41;95167.75;;;20.38;54.20
37892;BME280;45797;47.466;9.486;2023-04-21T14:00:42;95169.59;;;20.38;54.25
37892;BME280;45797;47.466;9.486;2023-04-21T14:05:42;95169.41;;;20.39;54.13
37892;BME280;45797;47.466;9.486;2023-04-21T14:10:42;95170.22;;;20.40;53.90
37892;BME280;45797;47.466;9.486;2023-04-21T14:15:42;95171.25;;;20.24;54.32
37892;BME280;45797;47.466;9.486;2023-04-21T14:20:44;95158.81;;;20.10;54.32
37892;BME280;45797;47.466;9.486;2023-04-21T14:25:44;95160.06;;;20.14;54.05
37892;BME280;45797;47.466;9.486;2023-04-21T14:30:45;95168.63;;;20.09;54.25
37892;BME280;45797;47.466;9.486;2023-04-21T14:35:45;95155.69;;;20.06;54.33
37892;BME280;45797;47.466;9.486;2023-04-21T14:40:45;95156.88;;;20.18;54.04
37892;BME280;45797;47.466;9.486;2023-04-21T14:45:46;95162.09;;;20.12;54.06
37892;BME280;45797;47.466;9.486;2023-04-21T14:50:46;95157.81;;;19.81;54.77
37892;BME280;45797;47.466;9.486;2023-04-21T14:55:46;95153.69;;;19.64;54.90
37892;BME280;45797;47.466;9.486;2023-04-21T15:00:46;95152.28;;;19.68;54.57
37892;BME280;45797;47.466;9.486;2023-04-21T15:05:47;95158.72;;;19.74;54.29
37892;BME280;45797;47.466;9.486;2023-04-21T15:10:47;95158.09;;;19.49;54.70
37892;BME280;45797;47.466;9.486;2023-04-21T15:15:47;95157.66;;;19.45;55.34
37892;BME280;45797;47.466;9.486;2023-04-21T15:20:49;95146.34;;;19.66;54.59
37892;BME280;45797;47.466;9.486;2023-04-21T15:25:49;95144.88;;;19.78;54.28
37892;BME280;45797;47.466;9.486;2023-04-21T15:30:49;95136.28;;;19.61;54.39
37892;BME280;45797;47.466;9.486;2023-04-21T15:35:49;95143.06;;;19.41;54.90
37892;BME280;45797;47.466;9.486;2023-04-21T15:40:50;95140.41;;;19.41;55.52
37892;BME280;45797;47.466;9.486;2023-04-21T15:45:51;95130.72;;;19.48;55.08
37892;BME280;45797;47.466;9.486;2023-04-21T15:50:51;95128.84;;;19.57;54.94
37892;BME280;45797;47.466;9.486;2023-04-21T15:55:51;95137.34;;;19.96;54.41
37892;BME280;45797;47.466;9.486;2023-04-21T16:00:52;95138.94;;;20.27;53.68
37892;BME280;45797;47.466;9.486;2023-04-21T16:05:53;95139.50;;;20.37;53.19
37892;BME280;45797;47.466;9.486;2023-04-21T16:10:53;95142.34;;;20.50;53.29
37892;BME280;45797;47.466;9.486;2023-04-21T16:15:54;95135.06;;;20.80;52.88
37892;BME280;45797;47.466;9.486;2023-04-21T16:20:55;95138.13;;;20.77;52.96
37892;BME280;45797;47.466;9.486;2023-04-21T16:25:55;95150.34;;;20.72;53.07
37892;BME280;45797;47.466;9.486;2023-04-21T16:30:55;95154.25;;;20.54;53.24
37892;BME280;45797;47.466;9.486;2023-04-21T16:35:56;95152.09;;;20.29;54.31
37892;BME280;45797;47.466;9.486;2023-04-21T16:40:56;95150.09;;;20.01;54.61
37892;BME280;45797;47.466;9.486;2023-04-21T16:45:56;95141.66;;;19.68;55.29
37892;BME280;45797;47.466;9.486;2023-04-21T16:50:57;95146.84;;;19.47;55.84
37892;BME280;45797;47.466;9.486;2023-04-21T16:55:58;95157.97;;;19.27;55.97
37892;BME280;45797;47.466;9.486;2023-04-21T17:00:58;95151.53;;;19.07;56.72
37892;BME280;45797;47.466;9.486;2023-04-21T17:05:59;95162.63;;;18.88;57.13
37892;BME280;45797;47.466;9.486;2023-04-21T17:10:59;95165.41;;;18.63;57.82
37892;BME280;45797;47.466;9.486;2023-04-21T17:15:59;95169.28;;;18.21;58.32
37892;BME280;45797;47.466;9.486;2023-04-21T17:20:59;95169.41;;;17.89;59.42
37892;BME280;45797;47.466;9.486;2023-04-21T17:25:59;95166.16;;;17.70;59.65
37892;BME280;45797;47.466;9.486;2023-04-21T17:31:00;95163.19;;;17.57;60.06
37892;BME280;45797;47.466;9.486;2023-04-21T17:36:03;95161.38;;;17.50;59.78
37892;BME280;45797;47.466;9.486;2023-04-21T17:41:03;95174.81;;;17.40;60.03
37892;BME280;45797;47.466;9.486;2023-04-21T17:46:05;95186.09;;;17.26;60.64
37892;BME280;45797;47.466;9.486;2023-04-21T17:51:06;95184.91;;;17.12;60.97
37892;BME280;45797;47.466;9.486;2023-04-21T17:56:07;95176.81;;;16.97;61.19
37892;BME280;45797;47.466;9.486;2023-04-21T18:01:07;95184.56;;;16.82;61.54
37892;BME280;45797;47.466;9.486;2023-04-21T18:06:08;95182.69;;;16.67;61.75
37892;BME280;45797;47.466;9.486;2023-04-21T18:11:12;95176.72;;;16.48;62.25
37892;BME280;45797;47.466;9.486;2023-04-21T18:16:12;95182.63;;;16.34;62.43
37892;BME280;45797;47.466;9.486;2023-04-21T18:21:13;95181.47;;;16.20;62.84
37892;BME280;45797;47.466;9.486;2023-04-21T18:26:14;95180.06;;;16.08;62.89
37892;BME280;45797;47.466;9.486;2023-04-21T18:31:14;95183.16;;;15.95;63.50
37892;BME280;45797;47.466;9.486;2023-04-21T18:36:14;95181.81;;;15.83;63.43
37892;BME280;45797;47.466;9.486;2023-04-21T18:41:15;95183.03;;;15.71;63.75
37892;BME280;45797;47.466;9.486;2023-04-21T18:46:15;95189.25;;;15.62;63.81
37892;BME280;45797;47.466;9.486;2023-04-21T18:51:15;95187.38;;;15.54;64.20
37892;BME280;45797;47.466;9.486;2023-04-21T18:56:15;95192.44;;;15.48;64.19
37892;BME280;45797;47.466;9.486;2023-04-21T19:01:16;95202.78;;;15.41;64.24
37892;BME280;45797;47.466;9.486;2023-04-21T19:06:16;95200.94;;;15.33;64.38
37892;BME280;45797;47.466;9.486;2023-04-21T19:11:16;95212.13;;;15.27;64.63
37892;BME280;45797;47.466;9.486;2023-04-21T19:16:16;95210.41;;;15.18;65.18
37892;BME280;45797;47.466;9.486;2023-04-21T19:21:16;95214.16;;;15.15;64.64
37892;BME280;45797;47.466;9.486;2023-04-21T19:26:17;95207.84;;;15.08;65.09
37892;BME280;45797;47.466;9.486;2023-04-21T19:31:17;95204.00;;;15.03;65.63
37892;BME280;45797;47.466;9.486;2023-04-21T19:36:22;95204.59;;;14.97;65.33
37892;BME280;45797;47.466;9.486;2023-04-21T19:41:22;95212.16;;;14.92;65.40
37892;BME280;45797;47.466;9.486;2023-04-21T19:46:23;95223.44;;;14.84;65.55
37892;BME280;45797;47.466;9.486;2023-04-21T19:51:23;95212.53;;;14.79;65.61
37892;BME280;45797;47.466;9.486;2023-04-21T19:56:23;95216.44;;;14.75;65.50
37892;BME280;45797;47.466;9.486;2023-04-21T20:01:23;95221.47;;;14.68;65.69
37892;BME280;45797;47.466;9.486;2023-04-21T20:06:24;95214.53;;;14.67;66.13
37892;BME280;45797;47.466;9.486;2023-04-21T20:11:25;95226.53;;;14.62;65.72
37892;BME280;45797;47.466;9.486;2023-04-21T20:16:26;95231.41;;;14.56;65.99
37892;BME280;45797;47.466;9.486;2023-04-21T20:21:26;95228.56;;;14.50;66.00
37892;BME280;45797;47.466;9.486;2023-04-21T20:26:26;95227.19;;;14.46;65.92
37892;BME280;45797;47.466;9.486;2023-04-21T20:31:26;95232.06;;;14.41;65.82
37892;BME280;45797;47.466;9.486;2023-04-21T20:36:27;95234.13;;;14.37;65.93
37892;BME280;45797;47.466;9.486;2023-04-21T20:41:27;95248.75;;;14.32;66.17
37892;BME280;45797;47.466;9.486;2023-04-21T20:46:28;95241.41;;;14.25;66.33
37892;BME280;45797;47.466;9.486;2023-04-21T20:51:28;95244.22;;;14.24;66.23
37892;BME280;45797;47.466;9.486;2023-04-21T20:56:28;95253.25;;;14.21;66.33
37892;BME280;45797;47.466;9.486;2023-04-21T21:01:28;95242.81;;;14.20;66.24
37892;BME280;45797;47.466;9.486;2023-04-21T21:06:30;95247.56;;;14.16;66.43
37892;BME280;45797;47.466;9.486;2023-04-21T21:11:30;95241.78;;;14.13;66.36
37892;BME280;45797;47.466;9.486;2023-04-21T21:16:30;95251.91;;;14.08;66.66
37892;BME280;45797;47.466;9.486;2023-04-21T21:21:30;95247.91;;;14.04;66.75
37892;BME280;45797;47.466;9.486;2023-04-21T21:26:30;95254.28;;;14.01;66.69
37892;BME280;45797;47.466;9.486;2023-04-21T21:31:31;95259.00;;;13.97;66.81
37892;BME280;45797;47.466;9.486;2023-04-21T21:36:31;95254.03;;;13.94;66.93
37892;BME280;45797;47.466;9.486;2023-04-21T21:41:31;95255.13;;;13.92;67.07
37892;BME280;45797;47.466;9.486;2023-04-21T21:46:32;95250.16;;;13.89;66.91
37892;BME280;45797;47.466;9.486;2023-04-21T21:51:32;95247.84;;;13.86;67.10
37892;BME280;45797;47.466;9.486;2023-04-21T21:56:32;95259.59;;;13.82;67.33
37892;BME280;45797;47.466;9.486;2023-04-21T22:01:33;95257.44;;;13.77;67.39
37892;BME280;45797;47.466;9.486;2023-04-21T22:06:33;95253.56;;;13.71;67.53
37892;BME280;45797;47.466;9.486;2023-04-21T22:11:34;95251.91;;;13.70;67.79
37892;BME280;45797;47.466;9.486;2023-04-21T22:16:36;95253.03;;;13.68;67.59
37892;BME280;45797;47.466;9.486;2023-04-21T22:21:37;95245.41;;;13.65;67.59
37892;BME280;45797;47.466;9.486;2023-04-21T22:26:37;95245.00;;;13.60;67.45
37892;BME280;45797;47.466;9.486;2023-04-21T22:31:37;95251.38;;;13.57;67.48
37892;BME280;45797;47.466;9.486;2023-04-21T22:36:37;95241.28;;;13.53;67.71
37892;BME280;45797;47.466;9.486;2023-04-21T22:41:38;95241.72;;;13.48;67.66
37892;BME280;45797;47.466;9.486;2023-04-21T22:46:38;95251.81;;;13.43;67.89
37892;BME280;45797;47.466;9.486;2023-04-21T22:51:38;95256.84;;;13.36;67.64
37892;BME280;45797;47.466;9.486;2023-04-21T22:56:39;95255.06;;;13.27;67.95
37892;BME280;45797;47.466;9.486;2023-04-21T23:01:39;95258.91;;;13.23;67.79
37892;BME280;45797;47.466;9.486;2023-04-21T23:06:39;95246.16;;;13.19;68.02
37892;BME280;45797;47.466;9.486;2023-04-21T23:11:39;95254.19;;;13.17;67.96
37892;BME280;45797;47.466;9.486;2023-04-21T23:16:40;95258.19;;;13.11;68.09
37892;BME280;45797;47.466;9.486;2023-04-21T23:21:41;95254.19;;;13.07;68.08
37892;BME280;45797;47.466;9.486;2023-04-21T23:26:41;95252.94;;;13.02;68.04
37892;BME280;45797;47.466;9.486;2023-04-21T23:31:41;95250.72;;;12.97;68.17
37892;BME280;45797;47.466;9.486;2023-04-21T23:36:42;95252.94;;;12.92;68.25
37892;BME280;45797;47.466;9.486;2023-04-21T23:41:42;95251.56;;;12.88;68.22
37892;BME280;45797;47.466;9.486;2023-04-21T23:46:42;95246.88;;;12.82;68.21
37892;BME280;45797;47.466;9.486;2023-04-21T23:51:43;95244.78;;;12.76;68.64
37892;BME280;45797;47.466;9.486;2023-04-21T23:56:43;95240.09;;;12.70;68.83
